Buda, Texas
Current Conditions -  °F | °C
As of 2:53 PM on Saturday 20 Dec 2014 (Local Time) from KAUS Reporting Station
Overcast Overcast  
Wind Chill: 12°   Ceiling: 2300
Heat Index: 12°   Visibility: 10mi
Dew Point:   Wind: 10mph
Humidity: 75%   Direction: 10°N
Pressure: 30.15"   Gusts: NA
Location:  30.09°N, 97.84°W
Report Text: KAUS 202053Z 01009KT 10SM OVC023 12/08 A3015 RMK AO2 SLP210 T01220078 56027
Loading
Personal Weather Stations






























Interactive Weather Map New forecast layout! Learn more

10-Day Weather Forecast

Advertisements
Track Severe Weather on mobile